sensor_id;sensor_type;location;lat;lon;timestamp;pressure;altitude;pressure_sealevel;temperature;humidity
20942;BME280;10630;53.734;10.282;2023-02-14T00:01:17;103371.38;;;12.42;57.74
20942;BME280;10630;53.734;10.282;2023-02-14T00:03:44;103380.59;;;12.38;56.76
20942;BME280;10630;53.734;10.282;2023-02-14T00:06:12;103387.09;;;12.10;56.31
20942;BME280;10630;53.734;10.282;2023-02-14T00:08:41;103385.09;;;12.00;57.45
20942;BME280;10630;53.734;10.282;2023-02-14T00:11:10;103386.41;;;12.32;56.80
20942;BME280;10630;53.734;10.282;2023-02-14T00:13:38;103383.31;;;12.25;56.17
20942;BME280;10630;53.734;10.282;2023-02-14T00:16:27;103380.34;;;12.17;56.71
20942;BME280;10630;53.734;10.282;2023-02-14T00:18:54;103385.22;;;11.86;57.26
20942;BME280;10630;53.734;10.282;2023-02-14T00:21:32;103385.22;;;11.99;58.45
20942;BME280;10630;53.734;10.282;2023-02-14T00:24:02;103386.91;;;12.13;57.54
20942;BME280;10630;53.734;10.282;2023-02-14T00:26:28;103386.56;;;11.29;58.19
20942;BME280;10630;53.734;10.282;2023-02-14T00:28:55;103380.97;;;11.83;57.94
20942;BME280;10630;53.734;10.282;2023-02-14T00:31:23;103378.03;;;12.12;56.94
20942;BME280;10630;53.734;10.282;2023-02-14T00:33:51;103381.06;;;12.32;56.08
20942;BME280;10630;53.734;10.282;2023-02-14T00:36:19;103375.59;;;11.96;56.48
20942;BME280;10630;53.734;10.282;2023-02-14T00:38:47;103375.59;;;12.09;56.79
20942;BME280;10630;53.734;10.282;2023-02-14T00:41:14;103369.75;;;12.28;56.41
20942;BME280;10630;53.734;10.282;2023-02-14T00:43:48;103371.59;;;12.15;56.84
20942;BME280;10630;53.734;10.282;2023-02-14T00:46:17;103381.78;;;11.21;57.04
20942;BME280;10630;53.734;10.282;2023-02-14T00:48:45;103373.28;;;11.79;57.11
20942;BME280;10630;53.734;10.282;2023-02-14T00:51:14;103368.38;;;11.98;56.63
20942;BME280;10630;53.734;10.282;2023-02-14T00:53:47;103377.34;;;11.71;56.84
20942;BME280;10630;53.734;10.282;2023-02-14T00:56:14;103366.00;;;12.07;56.76
20942;BME280;10630;53.734;10.282;2023-02-14T00:58:41;103366.03;;;11.81;57.13
20942;BME280;10630;53.734;10.282;2023-02-14T01:01:11;103372.28;;;12.06;56.75
20942;BME280;10630;53.734;10.282;2023-02-14T01:03:39;103374.63;;;11.34;56.89
20942;BME280;10630;53.734;10.282;2023-02-14T01:06:06;103372.88;;;10.82;57.59
20942;BME280;10630;53.734;10.282;2023-02-14T01:08:34;103372.91;;;11.07;58.28
20942;BME280;10630;53.734;10.282;2023-02-14T01:11:10;103374.94;;;11.17;57.35
20942;BME280;10630;53.734;10.282;2023-02-14T01:13:38;103364.41;;;11.28;56.61
20942;BME280;10630;53.734;10.282;2023-02-14T01:16:10;103360.09;;;11.51;56.64
20942;BME280;10630;53.734;10.282;2023-02-14T01:18:38;103357.56;;;11.87;55.99
20942;BME280;10630;53.734;10.282;2023-02-14T01:21:12;103362.75;;;12.14;55.00
20942;BME280;10630;53.734;10.282;2023-02-14T01:23:41;103356.75;;;11.74;56.68
20942;BME280;10630;53.734;10.282;2023-02-14T01:26:10;103364.66;;;10.85;58.16
20942;BME280;10630;53.734;10.282;2023-02-14T01:28:37;103358.09;;;11.29;58.51
20942;BME280;10630;53.734;10.282;2023-02-14T01:31:07;103352.19;;;11.76;57.14
20942;BME280;10630;53.734;10.282;2023-02-14T01:33:38;103356.91;;;11.96;56.71
20942;BME280;10630;53.734;10.282;2023-02-14T01:36:14;103355.31;;;12.07;55.48
20942;BME280;10630;53.734;10.282;2023-02-14T01:38:43;103343.50;;;12.22;55.11
20942;BME280;10630;53.734;10.282;2023-02-14T01:41:10;103347.84;;;12.23;55.60
20942;BME280;10630;53.734;10.282;2023-02-14T01:43:51;103336.81;;;11.66;57.11
20942;BME280;10630;53.734;10.282;2023-02-14T01:46:29;103344.19;;;12.13;56.65
20942;BME280;10630;53.734;10.282;2023-02-14T01:51:30;103349.22;;;12.29;55.98
20942;BME280;10630;53.734;10.282;2023-02-14T01:54:00;103341.09;;;12.30;55.90
20942;BME280;10630;53.734;10.282;2023-02-14T01:56:39;103340.44;;;12.15;56.56
20942;BME280;10630;53.734;10.282;2023-02-14T01:59:09;103339.81;;;12.12;56.17
20942;BME280;10630;53.734;10.282;2023-02-14T02:01:37;103338.78;;;11.88;56.66
20942;BME280;10630;53.734;10.282;2023-02-14T02:04:06;103336.69;;;11.81;57.34
20942;BME280;10630;53.734;10.282;2023-02-14T02:06:39;103337.84;;;11.77;57.20
20942;BME280;10630;53.734;10.282;2023-02-14T02:11:40;103325.25;;;11.79;56.18
20942;BME280;10630;53.734;10.282;2023-02-14T02:14:12;103325.84;;;11.95;55.87
20942;BME280;10630;53.734;10.282;2023-02-14T02:38:45;103313.59;;;12.17;56.01
20942;BME280;10630;53.734;10.282;2023-02-14T02:44:36;103311.16;;;11.77;56.62
20942;BME280;10630;53.734;10.282;2023-02-14T02:47:15;103303.59;;;12.08;56.30
20942;BME280;10630;53.734;10.282;2023-02-14T02:52:41;103303.38;;;12.11;56.17
20942;BME280;10630;53.734;10.282;2023-02-14T02:58:23;103305.19;;;11.73;56.37
20942;BME280;10630;53.734;10.282;2023-02-14T03:00:52;103308.72;;;12.11;56.17
20942;BME280;10630;53.734;10.282;2023-02-14T03:03:20;103305.94;;;12.12;55.70
20942;BME280;10630;53.734;10.282;2023-02-14T03:06:09;103302.34;;;12.00;55.01
20942;BME280;10630;53.734;10.282;2023-02-14T03:08:36;103310.22;;;11.15;56.30
20942;BME280;10630;53.734;10.282;2023-02-14T03:11:03;103313.94;;;10.73;57.99
20942;BME280;10630;53.734;10.282;2023-02-14T03:18:36;103305.91;;;11.51;58.80
20942;BME280;10630;53.734;10.282;2023-02-14T03:21:20;103306.94;;;11.61;57.45
20942;BME280;10630;53.734;10.282;2023-02-14T03:23:57;103299.78;;;11.24;57.56
20942;BME280;10630;53.734;10.282;2023-02-14T03:26:34;103308.31;;;10.91;57.65
20942;BME280;10630;53.734;10.282;2023-02-14T03:31:39;103301.69;;;11.22;57.42
20942;BME280;10630;53.734;10.282;2023-02-14T03:39:25;103295.50;;;11.22;56.19
20942;BME280;10630;53.734;10.282;2023-02-14T03:42:05;103301.97;;;11.44;56.76
20942;BME280;10630;53.734;10.282;2023-02-14T03:44:34;103297.34;;;11.59;57.11
20942;BME280;10630;53.734;10.282;2023-02-14T03:47:05;103296.00;;;11.53;57.67
20942;BME280;10630;53.734;10.282;2023-02-14T03:49:35;103282.84;;;11.63;56.89
20942;BME280;10630;53.734;10.282;2023-02-14T03:52:03;103285.19;;;11.54;57.35
20942;BME280;10630;53.734;10.282;2023-02-14T03:54:36;103278.13;;;11.66;57.51
20942;BME280;10630;53.734;10.282;2023-02-14T03:57:07;103283.44;;;11.79;57.81
20942;BME280;10630;53.734;10.282;2023-02-14T03:59:37;103277.97;;;11.81;57.81
20942;BME280;10630;53.734;10.282;2023-02-14T04:02:06;103274.13;;;11.48;57.83
20942;BME280;10630;53.734;10.282;2023-02-14T04:04:40;103276.63;;;11.62;57.94
20942;BME280;10630;53.734;10.282;2023-02-14T04:07:09;103273.81;;;11.77;57.75
20942;BME280;10630;53.734;10.282;2023-02-14T04:09:37;103274.66;;;11.53;57.14
20942;BME280;10630;53.734;10.282;2023-02-14T04:12:04;103277.75;;;11.47;58.03
20942;BME280;10630;53.734;10.282;2023-02-14T04:14:31;103274.56;;;11.42;57.68
20942;BME280;10630;53.734;10.282;2023-02-14T04:16:59;103273.19;;;11.23;57.46
20942;BME280;10630;53.734;10.282;2023-02-14T04:19:45;103278.84;;;11.31;58.25
20942;BME280;10630;53.734;10.282;2023-02-14T04:22:13;103270.31;;;11.26;58.51
20942;BME280;10630;53.734;10.282;2023-02-14T04:24:41;103276.53;;;11.01;58.46
20942;BME280;10630;53.734;10.282;2023-02-14T04:27:09;103276.72;;;11.36;57.84
20942;BME280;10630;53.734;10.282;2023-02-14T04:32:09;103270.97;;;11.17;57.94
20942;BME280;10630;53.734;10.282;2023-02-14T04:34:40;103268.72;;;11.23;57.82
20942;BME280;10630;53.734;10.282;2023-02-14T04:37:08;103267.13;;;11.34;57.52
20942;BME280;10630;53.734;10.282;2023-02-14T04:39:36;103268.63;;;11.62;56.46
20942;BME280;10630;53.734;10.282;2023-02-14T04:42:03;103271.50;;;11.22;57.34
20942;BME280;10630;53.734;10.282;2023-02-14T04:44:30;103271.31;;;10.99;59.29
20942;BME280;10630;53.734;10.282;2023-02-14T04:46:59;103261.59;;;11.11;59.73
20942;BME280;10630;53.734;10.282;2023-02-14T04:49:26;103263.72;;;10.93;59.14
20942;BME280;10630;53.734;10.282;2023-02-14T04:51:55;103258.81;;;11.26;59.44
20942;BME280;10630;53.734;10.282;2023-02-14T04:54:22;103260.53;;;11.14;59.99
20942;BME280;10630;53.734;10.282;2023-02-14T04:56:50;103254.00;;;11.18;59.42
20942;BME280;10630;53.734;10.282;2023-02-14T04:59:18;103260.47;;;11.39;59.37
20942;BME280;10630;53.734;10.282;2023-02-14T05:01:49;103253.06;;;11.56;59.01
20942;BME280;10630;53.734;10.282;2023-02-14T05:04:16;103260.28;;;11.43;58.42
20942;BME280;10630;53.734;10.282;2023-02-14T05:06:48;103258.84;;;11.50;58.50
20942;BME280;10630;53.734;10.282;2023-02-14T05:09:16;103259.19;;;11.45;58.55
20942;BME280;10630;53.734;10.282;2023-02-14T05:11:46;103257.28;;;11.34;58.57
20942;BME280;10630;53.734;10.282;2023-02-14T05:14:14;103261.22;;;11.42;58.08
20942;BME280;10630;53.734;10.282;2023-02-14T05:16:42;103256.31;;;11.48;57.45
20942;BME280;10630;53.734;10.282;2023-02-14T05:19:10;103258.75;;;11.38;58.24
20942;BME280;10630;53.734;10.282;2023-02-14T05:21:38;103259.84;;;11.36;58.55
20942;BME280;10630;53.734;10.282;2023-02-14T05:24:06;103259.16;;;11.21;58.57
20942;BME280;10630;53.734;10.282;2023-02-14T05:26:33;103254.84;;;11.31;58.89
20942;BME280;10630;53.734;10.282;2023-02-14T05:29:01;103256.19;;;11.50;58.05
20942;BME280;10630;53.734;10.282;2023-02-14T05:31:28;103251.31;;;11.44;57.96
20942;BME280;10630;53.734;10.282;2023-02-14T05:33:55;103247.78;;;11.43;58.54
20942;BME280;10630;53.734;10.282;2023-02-14T05:36:22;103252.63;;;11.12;58.62
20942;BME280;10630;53.734;10.282;2023-02-14T05:38:50;103253.25;;;11.16;59.04
20942;BME280;10630;53.734;10.282;2023-02-14T05:41:17;103241.78;;;11.52;58.73
20942;BME280;10630;53.734;10.282;2023-02-14T05:43:44;103253.94;;;10.93;58.37
20942;BME280;10630;53.734;10.282;2023-02-14T05:46:11;103247.28;;;11.25;58.63
20942;BME280;10630;53.734;10.282;2023-02-14T05:48:38;103241.59;;;11.43;58.59
20942;BME280;10630;53.734;10.282;2023-02-14T05:51:07;103234.19;;;11.59;58.31
20942;BME280;10630;53.734;10.282;2023-02-14T05:53:34;103244.81;;;11.35;58.08
20942;BME280;10630;53.734;10.282;2023-02-14T05:58:31;103247.94;;;11.16;58.02
20942;BME280;10630;53.734;10.282;2023-02-14T06:01:00;103235.69;;;11.50;57.24
20942;BME280;10630;53.734;10.282;2023-02-14T06:03:27;103237.53;;;11.74;56.91
20942;BME280;10630;53.734;10.282;2023-02-14T06:05:55;103229.19;;;11.54;56.95
20942;BME280;10630;53.734;10.282;2023-02-14T06:08:22;103240.69;;;11.18;57.74
20942;BME280;10630;53.734;10.282;2023-02-14T06:10:49;103243.38;;;11.55;57.89
20942;BME280;10630;53.734;10.282;2023-02-14T06:13:16;103247.53;;;11.59;57.45
20942;BME280;10630;53.734;10.282;2023-02-14T06:15:44;103239.88;;;11.04;57.13
20942;BME280;10630;53.734;10.282;2023-02-14T06:18:11;103245.13;;;11.30;58.15
20942;BME280;10630;53.734;10.282;2023-02-14T06:20:37;103249.34;;;11.08;58.04
20942;BME280;10630;53.734;10.282;2023-02-14T06:23:05;103246.78;;;11.20;58.38
20942;BME280;10630;53.734;10.282;2023-02-14T06:25:32;103249.28;;;11.34;57.99
20942;BME280;10630;53.734;10.282;2023-02-14T06:27:59;103250.28;;;11.07;58.83
20942;BME280;10630;53.734;10.282;2023-02-14T06:30:27;103258.00;;;10.99;58.64
20942;BME280;10630;53.734;10.282;2023-02-14T06:32:54;103256.06;;;11.01;59.40
20942;BME280;10630;53.734;10.282;2023-02-14T06:35:23;103250.69;;;11.40;59.21
20942;BME280;10630;53.734;10.282;2023-02-14T06:37:51;103252.84;;;11.22;59.27
20942;BME280;10630;53.734;10.282;2023-02-14T06:40:18;103256.94;;;11.52;58.85
20942;BME280;10630;53.734;10.282;2023-02-14T06:42:46;103258.75;;;11.51;58.28
20942;BME280;10630;53.734;10.282;2023-02-14T06:45:13;103255.72;;;11.32;58.52
20942;BME280;10630;53.734;10.282;2023-02-14T06:47:40;103261.72;;;11.47;59.32
20942;BME280;10630;53.734;10.282;2023-02-14T06:50:07;103261.22;;;11.42;58.73
20942;BME280;10630;53.734;10.282;2023-02-14T06:52:37;103261.81;;;11.21;59.04
20942;BME280;10630;53.734;10.282;2023-02-14T06:55:04;103260.03;;;11.46;58.67
20942;BME280;10630;53.734;10.282;2023-02-14T06:57:31;103253.69;;;11.60;58.12
20942;BME280;10630;53.734;10.282;2023-02-14T06:59:59;103265.66;;;10.78;59.19
20942;BME280;10630;53.734;10.282;2023-02-14T07:02:32;103265.63;;;11.17;59.62
20942;BME280;10630;53.734;10.282;2023-02-14T07:04:58;103253.53;;;11.50;58.42
20942;BME280;10630;53.734;10.282;2023-02-14T07:07:27;103251.47;;;10.77;59.01
20942;BME280;10630;53.734;10.282;2023-02-14T07:09:57;103251.22;;;11.32;60.16
20942;BME280;10630;53.734;10.282;2023-02-14T07:12:24;103251.53;;;11.65;58.61
20942;BME280;10630;53.734;10.282;2023-02-14T07:14:51;103249.88;;;11.14;59.24
20942;BME280;10630;53.734;10.282;2023-02-14T07:17:18;103254.47;;;11.49;58.99
20942;BME280;10630;53.734;10.282;2023-02-14T07:19:45;103251.28;;;11.56;58.54
20942;BME280;10630;53.734;10.282;2023-02-14T07:22:14;103248.69;;;11.55;60.12
20942;BME280;10630;53.734;10.282;2023-02-14T07:24:40;103250.25;;;11.70;58.91
20942;BME280;10630;53.734;10.282;2023-02-14T07:27:09;103243.38;;;11.55;59.82
20942;BME280;10630;53.734;10.282;2023-02-14T07:29:36;103245.97;;;11.44;59.68
20942;BME280;10630;53.734;10.282;2023-02-14T07:32:03;103243.03;;;11.22;61.25
20942;BME280;10630;53.734;10.282;2023-02-14T07:34:33;103247.16;;;11.39;60.60
20942;BME280;10630;53.734;10.282;2023-02-14T07:37:00;103243.97;;;11.34;60.70
20942;BME280;10630;53.734;10.282;2023-02-14T07:39:28;103247.06;;;11.28;61.13
20942;BME280;10630;53.734;10.282;2023-02-14T07:41:55;103244.41;;;11.65;60.43
20942;BME280;10630;53.734;10.282;2023-02-14T07:44:22;103245.56;;;11.61;60.48
20942;BME280;10630;53.734;10.282;2023-02-14T07:46:49;103248.81;;;10.52;62.51
20942;BME280;10630;53.734;10.282;2023-02-14T07:49:16;103259.16;;;10.82;64.26
20942;BME280;10630;53.734;10.282;2023-02-14T07:51:43;103246.44;;;11.86;61.39
20942;BME280;10630;53.734;10.282;2023-02-14T07:54:10;103246.44;;;11.86;60.28
20942;BME280;10630;53.734;10.282;2023-02-14T07:56:37;103250.09;;;10.85;63.10
20942;BME280;10630;53.734;10.282;2023-02-14T07:59:03;103243.16;;;11.58;62.54
20942;BME280;10630;53.734;10.282;2023-02-14T08:01:30;103247.69;;;11.93;61.29
20942;BME280;10630;53.734;10.282;2023-02-14T08:03:57;103240.44;;;11.95;60.15
20942;BME280;10630;53.734;10.282;2023-02-14T08:06:25;103248.28;;;11.85;60.71
20942;BME280;10630;53.734;10.282;2023-02-14T08:08:54;103246.81;;;12.06;60.12
20942;BME280;10630;53.734;10.282;2023-02-14T08:11:21;103245.16;;;12.16;59.65
20942;BME280;10630;53.734;10.282;2023-02-14T08:14:07;103248.38;;;12.32;59.00
20942;BME280;10630;53.734;10.282;2023-02-14T08:16:34;103247.00;;;12.74;58.31
20942;BME280;10630;53.734;10.282;2023-02-14T08:19:01;103238.91;;;12.28;58.30
20942;BME280;10630;53.734;10.282;2023-02-14T08:21:28;103232.38;;;12.55;58.66
20942;BME280;10630;53.734;10.282;2023-02-14T08:23:56;103242.38;;;12.64;58.78
20942;BME280;10630;53.734;10.282;2023-02-14T08:26:24;103244.31;;;12.85;57.87
20942;BME280;10630;53.734;10.282;2023-02-14T08:28:52;103244.22;;;13.09;57.54
20942;BME280;10630;53.734;10.282;2023-02-14T08:31:23;103239.97;;;12.95;57.00
20942;BME280;10630;53.734;10.282;2023-02-14T08:34:00;103240.31;;;12.68;57.03
20942;BME280;10630;53.734;10.282;2023-02-14T08:36:27;103243.22;;;12.65;57.48
20942;BME280;10630;53.734;10.282;2023-02-14T08:38:54;103240.69;;;12.86;57.39
20942;BME280;10630;53.734;10.282;2023-02-14T08:41:22;103239.72;;;13.21;56.72
20942;BME280;10630;53.734;10.282;2023-02-14T08:43:49;103237.78;;;13.01;56.56
20942;BME280;10630;53.734;10.282;2023-02-14T08:46:17;103246.16;;;12.85;57.61
20942;BME280;10630;53.734;10.282;2023-02-14T08:48:45;103243.13;;;13.01;56.90
20942;BME280;10630;53.734;10.282;2023-02-14T08:51:13;103246.72;;;12.54;57.80
20942;BME280;10630;53.734;10.282;2023-02-14T08:53:42;103246.72;;;12.54;58.20
20942;BME280;10630;53.734;10.282;2023-02-14T08:56:10;103252.22;;;12.64;57.63
20942;BME280;10630;53.734;10.282;2023-02-14T08:58:37;103250.66;;;12.95;57.71
20942;BME280;10630;53.734;10.282;2023-02-14T09:01:14;103258.44;;;12.98;57.34
20942;BME280;10630;53.734;10.282;2023-02-14T09:03:42;103252.19;;;12.41;56.56
20942;BME280;10630;53.734;10.282;2023-02-14T09:06:10;103250.28;;;13.11;57.17
20942;BME280;10630;53.734;10.282;2023-02-14T09:08:38;103255.16;;;13.06;57.60
20942;BME280;10630;53.734;10.282;2023-02-14T09:11:08;103247.59;;;12.55;57.08
20942;BME280;10630;53.734;10.282;2023-02-14T09:13:36;103254.53;;;12.91;58.17
20942;BME280;10630;53.734;10.282;2023-02-14T09:16:03;103248.34;;;13.25;56.79
20942;BME280;10630;53.734;10.282;2023-02-14T09:18:32;103248.34;;;13.36;56.41
20942;BME280;10630;53.734;10.282;2023-02-14T09:20:59;103246.50;;;13.59;56.17
20942;BME280;10630;53.734;10.282;2023-02-14T09:23:27;103243.50;;;13.07;56.22
20942;BME280;10630;53.734;10.282;2023-02-14T09:26:00;103239.72;;;13.21;56.12
20942;BME280;10630;53.734;10.282;2023-02-14T09:28:27;103231.44;;;13.47;56.59
20942;BME280;10630;53.734;10.282;2023-02-14T09:30:55;103237.13;;;13.98;55.01
20942;BME280;10630;53.734;10.282;2023-02-14T09:33:22;103236.88;;;14.01;54.83
20942;BME280;10630;53.734;10.282;2023-02-14T09:35:50;103232.16;;;14.14;54.19
20942;BME280;10630;53.734;10.282;2023-02-14T09:38:17;103219.91;;;14.33;53.25
20942;BME280;10630;53.734;10.282;2023-02-14T09:40:45;103216.09;;;14.14;52.60
20942;BME280;10630;53.734;10.282;2023-02-14T09:43:16;103216.25;;;14.55;52.98
20942;BME280;10630;53.734;10.282;2023-02-14T09:45:47;103209.84;;;14.25;53.16
20942;BME280;10630;53.734;10.282;2023-02-14T09:51:03;103210.56;;;14.48;52.82
20942;BME280;10630;53.734;10.282;2023-02-14T09:53:32;103218.00;;;14.23;52.92
20942;BME280;10630;53.734;10.282;2023-02-14T09:56:05;103216.72;;;13.85;53.00
20942;BME280;10630;53.734;10.282;2023-02-14T09:58:44;103211.28;;;14.50;53.09
20942;BME280;10630;53.734;10.282;2023-02-14T10:01:17;103211.53;;;14.05;53.15
20942;BME280;10630;53.734;10.282;2023-02-14T10:11:40;103212.94;;;15.03;52.33
20942;BME280;10630;53.734;10.282;2023-02-14T10:14:11;103215.97;;;15.20;51.58
20942;BME280;10630;53.734;10.282;2023-02-14T10:16:45;103212.69;;;14.54;52.85
20942;BME280;10630;53.734;10.282;2023-02-14T10:21:50;103203.69;;;15.27;51.89
20942;BME280;10630;53.734;10.282;2023-02-14T10:25:19;103217.25;;;15.26;51.50
20942;BME280;10630;53.734;10.282;2023-02-14T10:29:43;103204.25;;;15.11;52.12
20942;BME280;10630;53.734;10.282;2023-02-14T10:32:14;103200.97;;;14.98;52.71
20942;BME280;10630;53.734;10.282;2023-02-14T10:34:47;103199.31;;;15.16;52.54
20942;BME280;10630;53.734;10.282;2023-02-14T10:44:45;103199.88;;;15.20;51.75
20942;BME280;10630;53.734;10.282;2023-02-14T10:49:46;103187.06;;;14.62;52.69
20942;BME280;10630;53.734;10.282;2023-02-14T10:52:17;103183.69;;;15.51;52.85
20942;BME280;10630;53.734;10.282;2023-02-14T10:54:50;103189.94;;;14.49;53.04
20942;BME280;10630;53.734;10.282;2023-02-14T10:57:20;103180.59;;;15.36;52.65
20942;BME280;10630;53.734;10.282;2023-02-14T10:59:54;103173.69;;;14.93;53.02
20942;BME280;10630;53.734;10.282;2023-02-14T11:02:29;103172.06;;;15.31;51.85
20942;BME280;10630;53.734;10.282;2023-02-14T11:04:57;103163.84;;;15.13;52.95
20942;BME280;10630;53.734;10.282;2023-02-14T11:07:24;103171.13;;;14.81;52.43
20942;BME280;10630;53.734;10.282;2023-02-14T11:09:51;103169.25;;;15.23;52.90
20942;BME280;10630;53.734;10.282;2023-02-14T11:12:31;103167.41;;;15.13;52.84
20942;BME280;10630;53.734;10.282;2023-02-14T11:15:07;103171.25;;;15.40;52.88
20942;BME280;10630;53.734;10.282;2023-02-14T11:17:35;103174.09;;;15.48;52.30
20942;BME280;10630;53.734;10.282;2023-02-14T11:22:48;103167.59;;;15.41;51.75
20942;BME280;10630;53.734;10.282;2023-02-14T11:25:23;103159.94;;;15.27;52.67
20942;BME280;10630;53.734;10.282;2023-02-14T11:27:51;103157.94;;;16.17;50.49
20942;BME280;10630;53.734;10.282;2023-02-14T11:30:21;103164.75;;;16.02;50.41
20942;BME280;10630;53.734;10.282;2023-02-14T11:32:51;103153.75;;;15.36;51.96
20942;BME280;10630;53.734;10.282;2023-02-14T11:35:27;103146.94;;;15.32;53.02
20942;BME280;10630;53.734;10.282;2023-02-14T11:38:00;103142.19;;;15.55;53.15
20942;BME280;10630;53.734;10.282;2023-02-14T11:42:57;103139.91;;;16.00;51.89
20942;BME280;10630;53.734;10.282;2023-02-14T11:45:40;103137.06;;;15.81;50.25
20942;BME280;10630;53.734;10.282;2023-02-14T11:50:36;103139.53;;;16.32;50.99
20942;BME280;10630;53.734;10.282;2023-02-14T11:53:04;103127.31;;;16.48;50.21
20942;BME280;10630;53.734;10.282;2023-02-14T11:55:36;103118.31;;;16.39;50.80
20942;BME280;10630;53.734;10.282;2023-02-14T11:58:03;103113.88;;;16.00;50.12
20942;BME280;10630;53.734;10.282;2023-02-14T12:00:32;103109.16;;;16.22;50.74
20942;BME280;10630;53.734;10.282;2023-02-14T12:03:00;103110.69;;;16.34;49.57
20942;BME280;10630;53.734;10.282;2023-02-14T12:05:35;103098.22;;;15.86;50.34
20942;BME280;10630;53.734;10.282;2023-02-14T12:08:10;103094.34;;;16.45;50.34
20942;BME280;10630;53.734;10.282;2023-02-14T12:10:38;103091.88;;;16.34;49.77
20942;BME280;10630;53.734;10.282;2023-02-14T12:23:03;103083.09;;;16.32;50.94
20942;BME280;10630;53.734;10.282;2023-02-14T12:25:39;103073.34;;;16.31;50.36
20942;BME280;10630;53.734;10.282;2023-02-14T12:28:12;103072.25;;;16.80;49.05
20942;BME280;10630;53.734;10.282;2023-02-14T12:30:41;103071.94;;;17.11;48.69
20942;BME280;10630;53.734;10.282;2023-02-14T12:33:14;103062.31;;;17.26;49.08
20942;BME280;10630;53.734;10.282;2023-02-14T12:40:56;103062.03;;;16.83;50.58
20942;BME280;10630;53.734;10.282;2023-02-14T12:48:45;103051.47;;;15.59;51.92
20942;BME280;10630;53.734;10.282;2023-02-14T12:51:25;103048.44;;;16.29;51.09
20942;BME280;10630;53.734;10.282;2023-02-14T13:06:41;103024.34;;;16.93;49.92
20942;BME280;10630;53.734;10.282;2023-02-14T13:14:51;103021.63;;;16.19;51.18
20942;BME280;10630;53.734;10.282;2023-02-14T13:22:15;103004.47;;;16.02;52.57
20942;BME280;10630;53.734;10.282;2023-02-14T13:24:45;103007.50;;;16.17;51.92
20942;BME280;10630;53.734;10.282;2023-02-14T13:27:13;103007.53;;;16.07;52.68
20942;BME280;10630;53.734;10.282;2023-02-14T13:29:48;102995.53;;;16.39;51.62
20942;BME280;10630;53.734;10.282;2023-02-14T13:32:18;102999.72;;;16.70;51.11
20942;BME280;10630;53.734;10.282;2023-02-14T13:34:46;102982.72;;;16.97;50.95
20942;BME280;10630;53.734;10.282;2023-02-14T13:37:15;102982.72;;;16.97;50.56
20942;BME280;10630;53.734;10.282;2023-02-14T13:39:44;102987.25;;;16.51;50.32
20942;BME280;10630;53.734;10.282;2023-02-14T13:42:13;102986.31;;;16.60;50.74
20942;BME280;10630;53.734;10.282;2023-02-14T13:44:59;102976.81;;;16.66;51.74
20942;BME280;10630;53.734;10.282;2023-02-14T13:47:27;102975.00;;;17.02;50.85
20942;BME280;10630;53.734;10.282;2023-02-14T13:49:55;102977.31;;;17.15;50.22
20942;BME280;10630;53.734;10.282;2023-02-14T13:52:40;102979.50;;;16.66;50.16
20942;BME280;10630;53.734;10.282;2023-02-14T13:55:08;102973.13;;;16.85;50.24
20942;BME280;10630;53.734;10.282;2023-02-14T13:57:36;102970.59;;;16.83;50.73
20942;BME280;10630;53.734;10.282;2023-02-14T14:18:50;102948.16;;;16.10;52.57
20942;BME280;10630;53.734;10.282;2023-02-14T14:24:27;102946.63;;;16.08;51.81
20942;BME280;10630;53.734;10.282;2023-02-14T14:26:51;102959.03;;;15.71;53.22
20942;BME280;10630;53.734;10.282;2023-02-14T14:31:54;102950.34;;;16.25;53.47
20942;BME280;10630;53.734;10.282;2023-02-14T14:34:25;102947.56;;;16.17;52.86
20942;BME280;10630;53.734;10.282;2023-02-14T14:37:02;102950.63;;;16.22;51.98
20942;BME280;10630;53.734;10.282;2023-02-14T14:39:30;102951.94;;;15.90;52.76
20942;BME280;10630;53.734;10.282;2023-02-14T14:42:04;102946.00;;;15.76;53.82
20942;BME280;10630;53.734;10.282;2023-02-14T14:44:33;102945.16;;;16.41;52.83
20942;BME280;10630;53.734;10.282;2023-02-14T14:47:02;102941.16;;;16.00;52.42
20942;BME280;10630;53.734;10.282;2023-02-14T14:49:29;102935.94;;;15.41;53.90
20942;BME280;10630;53.734;10.282;2023-02-14T14:51:57;102938.75;;;15.59;54.03
20942;BME280;10630;53.734;10.282;2023-02-14T14:54:24;102927.22;;;15.86;53.49
20942;BME280;10630;53.734;10.282;2023-02-14T14:56:56;102928.81;;;15.69;53.31
20942;BME280;10630;53.734;10.282;2023-02-14T14:59:31;102925.94;;;15.90;53.11
20942;BME280;10630;53.734;10.282;2023-02-14T15:02:00;102918.81;;;16.27;53.02
20942;BME280;10630;53.734;10.282;2023-02-14T15:04:31;102922.13;;;16.11;52.95
20942;BME280;10630;53.734;10.282;2023-02-14T15:09:44;102924.06;;;15.91;53.54
20942;BME280;10630;53.734;10.282;2023-02-14T15:12:11;102920.00;;;15.87;53.52
20942;BME280;10630;53.734;10.282;2023-02-14T15:14:59;102920.91;;;16.05;52.86
20942;BME280;10630;53.734;10.282;2023-02-14T15:17:26;102916.16;;;16.17;53.64
20942;BME280;10630;53.734;10.282;2023-02-14T15:19:59;102916.81;;;16.01;53.09
20942;BME280;10630;53.734;10.282;2023-02-14T15:24:59;102913.34;;;15.53;53.44
20942;BME280;10630;53.734;10.282;2023-02-14T15:27:26;102908.16;;;15.79;53.06
20942;BME280;10630;53.734;10.282;2023-02-14T15:29:55;102905.34;;;15.71;53.46
20942;BME280;10630;53.734;10.282;2023-02-14T15:32:26;102900.72;;;15.16;54.53
20942;BME280;10630;53.734;10.282;2023-02-14T15:34:55;102897.66;;;15.48;54.47